sensor_id;sensor_type;location;lat;lon;timestamp;temperature;humidity
33011;DHT22;19370;48.562;9.196;2022-08-25T00:00:14;20.60;99.90
33011;DHT22;19370;48.562;9.196;2022-08-25T00:03:01;20.50;99.90
33011;DHT22;19370;48.562;9.196;2022-08-25T00:05:48;20.50;99.90
33011;DHT22;19370;48.562;9.196;2022-08-25T00:08:34;20.50;99.90
33011;DHT22;19370;48.562;9.196;2022-08-25T00:11:23;20.50;99.90
33011;DHT22;19370;48.562;9.196;2022-08-25T00:14:12;20.50;99.90
33011;DHT22;19370;48.562;9.196;2022-08-25T00:16:59;20.50;99.90
33011;DHT22;19370;48.562;9.196;2022-08-25T00:19:46;20.50;99.90
33011;DHT22;19370;48.562;9.196;2022-08-25T00:22:32;20.50;99.90
33011;DHT22;19370;48.562;9.196;2022-08-25T00:25:18;20.50;99.90
33011;DHT22;19370;48.562;9.196;2022-08-25T00:28:04;20.40;99.90
33011;DHT22;19370;48.562;9.196;2022-08-25T00:30:50;20.30;99.90
33011;DHT22;19370;48.562;9.196;2022-08-25T00:33:36;20.30;99.90
33011;DHT22;19370;48.562;9.196;2022-08-25T00:36:22;20.30;99.90
33011;DHT22;19370;48.562;9.196;2022-08-25T00:39:09;20.30;99.90
33011;DHT22;19370;48.562;9.196;2022-08-25T00:41:56;20.30;99.90
33011;DHT22;19370;48.562;9.196;2022-08-25T00:44:45;20.30;99.90
33011;DHT22;19370;48.562;9.196;2022-08-25T00:47:32;20.20;99.90
33011;DHT22;19370;48.562;9.196;2022-08-25T00:50:19;20.20;99.90
33011;DHT22;19370;48.562;9.196;2022-08-25T00:53:06;20.20;99.90
33011;DHT22;19370;48.562;9.196;2022-08-25T00:55:53;20.10;99.90
33011;DHT22;19370;48.562;9.196;2022-08-25T00:58:39;20.10;99.90
33011;DHT22;19370;48.562;9.196;2022-08-25T01:01:26;20.10;99.90
33011;DHT22;19370;48.562;9.196;2022-08-25T01:04:12;20.00;99.90
33011;DHT22;19370;48.562;9.196;2022-08-25T01:06:59;20.10;99.90
33011;DHT22;19370;48.562;9.196;2022-08-25T01:09:47;20.00;99.90
33011;DHT22;19370;48.562;9.196;2022-08-25T01:12:35;20.10;99.90
33011;DHT22;19370;48.562;9.196;2022-08-25T01:15:22;20.10;99.90
33011;DHT22;19370;48.562;9.196;2022-08-25T01:18:08;19.90;99.90
33011;DHT22;19370;48.562;9.196;2022-08-25T01:20:56;19.90;99.90
33011;DHT22;19370;48.562;9.196;2022-08-25T01:23:42;19.90;99.90
33011;DHT22;19370;48.562;9.196;2022-08-25T01:26:31;19.90;99.90
33011;DHT22;19370;48.562;9.196;2022-08-25T01:29:17;19.90;99.90
33011;DHT22;19370;48.562;9.196;2022-08-25T01:32:09;19.90;99.90
33011;DHT22;19370;48.562;9.196;2022-08-25T01:34:55;19.80;99.90
33011;DHT22;19370;48.562;9.196;2022-08-25T01:37:41;19.80;99.90
33011;DHT22;19370;48.562;9.196;2022-08-25T01:40:27;19.80;99.90
33011;DHT22;19370;48.562;9.196;2022-08-25T01:45:59;19.80;99.90
33011;DHT22;19370;48.562;9.196;2022-08-25T01:48:45;19.70;99.90
33011;DHT22;19370;48.562;9.196;2022-08-25T01:52:00;19.70;99.90
33011;DHT22;19370;48.562;9.196;2022-08-25T01:54:46;19.70;99.90
33011;DHT22;19370;48.562;9.196;2022-08-25T01:57:32;19.60;99.90
33011;DHT22;19370;48.562;9.196;2022-08-25T02:00:21;19.50;99.90
33011;DHT22;19370;48.562;9.196;2022-08-25T02:03:07;19.50;99.90
33011;DHT22;19370;48.562;9.196;2022-08-25T02:05:55;19.60;99.90
33011;DHT22;19370;48.562;9.196;2022-08-25T02:08:42;19.50;99.90
33011;DHT22;19370;48.562;9.196;2022-08-25T02:11:28;19.50;99.90
33011;DHT22;19370;48.562;9.196;2022-08-25T02:14:15;19.50;99.90
33011;DHT22;19370;48.562;9.196;2022-08-25T02:17:03;19.50;99.90
33011;DHT22;19370;48.562;9.196;2022-08-25T02:19:49;19.40;99.90
33011;DHT22;19370;48.562;9.196;2022-08-25T02:22:35;19.40;99.90
33011;DHT22;19370;48.562;9.196;2022-08-25T02:25:21;19.40;99.90
33011;DHT22;19370;48.562;9.196;2022-08-25T02:28:08;19.40;99.90
33011;DHT22;19370;48.562;9.196;2022-08-25T02:30:54;19.50;99.90
33011;DHT22;19370;48.562;9.196;2022-08-25T02:33:40;19.60;99.90
33011;DHT22;19370;48.562;9.196;2022-08-25T02:36:26;19.60;99.90
33011;DHT22;19370;48.562;9.196;2022-08-25T02:39:12;19.50;99.90
33011;DHT22;19370;48.562;9.196;2022-08-25T02:41:58;19.50;99.90
33011;DHT22;19370;48.562;9.196;2022-08-25T02:44:44;19.50;99.90
33011;DHT22;19370;48.562;9.196;2022-08-25T02:47:30;19.40;99.90
33011;DHT22;19370;48.562;9.196;2022-08-25T02:50:16;19.40;99.90
33011;DHT22;19370;48.562;9.196;2022-08-25T02:53:02;19.30;99.90
33011;DHT22;19370;48.562;9.196;2022-08-25T02:55:48;19.20;99.90
33011;DHT22;19370;48.562;9.196;2022-08-25T02:58:36;19.10;99.90
33011;DHT22;19370;48.562;9.196;2022-08-25T03:01:22;19.10;99.90
33011;DHT22;19370;48.562;9.196;2022-08-25T03:04:08;19.10;99.90
33011;DHT22;19370;48.562;9.196;2022-08-25T03:06:54;19.00;99.90
33011;DHT22;19370;48.562;9.196;2022-08-25T03:09:40;19.00;99.90
33011;DHT22;19370;48.562;9.196;2022-08-25T03:12:26;19.00;99.90
33011;DHT22;19370;48.562;9.196;2022-08-25T03:15:14;19.00;99.90
33011;DHT22;19370;48.562;9.196;2022-08-25T03:18:01;19.00;99.90
33011;DHT22;19370;48.562;9.196;2022-08-25T03:20:47;18.90;99.90
33011;DHT22;19370;48.562;9.196;2022-08-25T03:23:33;18.90;99.90
33011;DHT22;19370;48.562;9.196;2022-08-25T03:26:20;18.80;99.90
33011;DHT22;19370;48.562;9.196;2022-08-25T03:29:27;18.80;99.90
33011;DHT22;19370;48.562;9.196;2022-08-25T03:32:13;18.80;99.90
33011;DHT22;19370;48.562;9.196;2022-08-25T03:34:59;18.70;99.90
33011;DHT22;19370;48.562;9.196;2022-08-25T03:37:46;18.70;99.90
33011;DHT22;19370;48.562;9.196;2022-08-25T03:40:32;18.60;99.90
33011;DHT22;19370;48.562;9.196;2022-08-25T03:43:19;18.60;99.90
33011;DHT22;19370;48.562;9.196;2022-08-25T03:46:05;18.60;99.90
33011;DHT22;19370;48.562;9.196;2022-08-25T03:48:51;18.60;99.90
33011;DHT22;19370;48.562;9.196;2022-08-25T03:51:43;18.40;99.90
33011;DHT22;19370;48.562;9.196;2022-08-25T03:54:30;18.40;99.90
33011;DHT22;19370;48.562;9.196;2022-08-25T03:57:16;18.30;99.90
33011;DHT22;19370;48.562;9.196;2022-08-25T04:00:04;18.20;99.90
33011;DHT22;19370;48.562;9.196;2022-08-25T04:02:50;18.20;99.90
33011;DHT22;19370;48.562;9.196;2022-08-25T04:05:36;18.20;99.90
33011;DHT22;19370;48.562;9.196;2022-08-25T04:08:22;18.10;99.90
33011;DHT22;19370;48.562;9.196;2022-08-25T04:11:15;18.10;99.90
33011;DHT22;19370;48.562;9.196;2022-08-25T04:14:03;18.00;99.90
33011;DHT22;19370;48.562;9.196;2022-08-25T04:16:49;17.90;99.90
33011;DHT22;19370;48.562;9.196;2022-08-25T04:19:35;17.90;99.90
33011;DHT22;19370;48.562;9.196;2022-08-25T04:22:22;17.90;99.90
33011;DHT22;19370;48.562;9.196;2022-08-25T04:25:09;18.00;99.90
33011;DHT22;19370;48.562;9.196;2022-08-25T04:27:55;17.90;99.90
33011;DHT22;19370;48.562;9.196;2022-08-25T04:30:41;17.90;99.90
33011;DHT22;19370;48.562;9.196;2022-08-25T04:33:28;18.00;99.90
33011;DHT22;19370;48.562;9.196;2022-08-25T04:36:15;18.00;99.90
33011;DHT22;19370;48.562;9.196;2022-08-25T04:39:02;17.90;99.90
33011;DHT22;19370;48.562;9.196;2022-08-25T04:41:49;17.90;99.90
33011;DHT22;19370;48.562;9.196;2022-08-25T04:44:35;18.00;99.90
33011;DHT22;19370;48.562;9.196;2022-08-25T04:47:22;18.00;99.90
33011;DHT22;19370;48.562;9.196;2022-08-25T04:50:08;18.10;99.90
33011;DHT22;19370;48.562;9.196;2022-08-25T04:52:54;18.00;99.90
33011;DHT22;19370;48.562;9.196;2022-08-25T04:55:46;18.00;99.90
33011;DHT22;19370;48.562;9.196;2022-08-25T04:58:32;18.00;99.90
33011;DHT22;19370;48.562;9.196;2022-08-25T05:01:21;18.00;99.90
33011;DHT22;19370;48.562;9.196;2022-08-25T05:04:10;18.10;99.90
33011;DHT22;19370;48.562;9.196;2022-08-25T05:06:56;18.10;99.90
33011;DHT22;19370;48.562;9.196;2022-08-25T05:09:42;18.10;99.90
33011;DHT22;19370;48.562;9.196;2022-08-25T05:12:28;18.20;99.90
33011;DHT22;19370;48.562;9.196;2022-08-25T05:15:14;18.20;99.90
33011;DHT22;19370;48.562;9.196;2022-08-25T05:18:20;18.30;99.90
33011;DHT22;19370;48.562;9.196;2022-08-25T05:21:11;18.30;99.90
33011;DHT22;19370;48.562;9.196;2022-08-25T05:23:58;18.40;99.90
33011;DHT22;19370;48.562;9.196;2022-08-25T05:26:44;18.40;99.90
33011;DHT22;19370;48.562;9.196;2022-08-25T05:29:30;18.50;99.90
33011;DHT22;19370;48.562;9.196;2022-08-25T05:32:16;18.50;99.90
33011;DHT22;19370;48.562;9.196;2022-08-25T05:35:03;18.50;99.90
33011;DHT22;19370;48.562;9.196;2022-08-25T05:37:49;18.60;99.90
33011;DHT22;19370;48.562;9.196;2022-08-25T05:40:35;18.70;99.90
33011;DHT22;19370;48.562;9.196;2022-08-25T05:43:22;18.70;99.90
33011;DHT22;19370;48.562;9.196;2022-08-25T05:46:09;18.80;99.90
33011;DHT22;19370;48.562;9.196;2022-08-25T05:48:55;18.80;99.90
33011;DHT22;19370;48.562;9.196;2022-08-25T05:51:41;18.90;99.90
33011;DHT22;19370;48.562;9.196;2022-08-25T05:54:27;18.90;99.90
33011;DHT22;19370;48.562;9.196;2022-08-25T05:57:13;18.90;99.90
33011;DHT22;19370;48.562;9.196;2022-08-25T06:00:00;19.00;99.90
33011;DHT22;19370;48.562;9.196;2022-08-25T06:02:46;19.00;99.90
33011;DHT22;19370;48.562;9.196;2022-08-25T06:05:34;19.00;99.90
33011;DHT22;19370;48.562;9.196;2022-08-25T06:08:20;19.10;99.90
33011;DHT22;19370;48.562;9.196;2022-08-25T06:11:06;19.10;99.90
33011;DHT22;19370;48.562;9.196;2022-08-25T06:13:52;19.00;99.90
33011;DHT22;19370;48.562;9.196;2022-08-25T06:16:38;18.90;99.90
33011;DHT22;19370;48.562;9.196;2022-08-25T06:19:25;19.10;99.90
33011;DHT22;19370;48.562;9.196;2022-08-25T06:22:11;19.20;99.90
33011;DHT22;19370;48.562;9.196;2022-08-25T06:24:57;19.10;99.90
33011;DHT22;19370;48.562;9.196;2022-08-25T06:27:43;19.30;99.90
33011;DHT22;19370;48.562;9.196;2022-08-25T06:30:29;19.30;99.90
33011;DHT22;19370;48.562;9.196;2022-08-25T06:33:15;19.30;99.90
33011;DHT22;19370;48.562;9.196;2022-08-25T06:36:02;19.30;99.90
33011;DHT22;19370;48.562;9.196;2022-08-25T06:38:48;19.30;99.90
33011;DHT22;19370;48.562;9.196;2022-08-25T06:41:35;19.30;99.90
33011;DHT22;19370;48.562;9.196;2022-08-25T06:44:23;19.40;99.90
33011;DHT22;19370;48.562;9.196;2022-08-25T06:47:09;19.60;99.90
33011;DHT22;19370;48.562;9.196;2022-08-25T06:49:55;19.60;99.90
33011;DHT22;19370;48.562;9.196;2022-08-25T06:52:41;19.90;99.90
33011;DHT22;19370;48.562;9.196;2022-08-25T06:55:27;20.00;99.90
33011;DHT22;19370;48.562;9.196;2022-08-25T06:58:13;20.10;99.90
33011;DHT22;19370;48.562;9.196;2022-08-25T07:01:11;20.30;99.90
33011;DHT22;19370;48.562;9.196;2022-08-25T07:04:00;20.40;99.90
33011;DHT22;19370;48.562;9.196;2022-08-25T07:06:47;20.50;99.90
33011;DHT22;19370;48.562;9.196;2022-08-25T07:09:33;20.60;99.90
33011;DHT22;19370;48.562;9.196;2022-08-25T07:12:20;20.80;99.90
33011;DHT22;19370;48.562;9.196;2022-08-25T07:15:06;20.90;99.90
33011;DHT22;19370;48.562;9.196;2022-08-25T07:17:52;21.10;99.90
33011;DHT22;19370;48.562;9.196;2022-08-25T07:20:39;21.30;99.90
33011;DHT22;19370;48.562;9.196;2022-08-25T07:23:27;21.40;99.90
33011;DHT22;19370;48.562;9.196;2022-08-25T07:26:19;21.50;99.90
33011;DHT22;19370;48.562;9.196;2022-08-25T07:29:26;21.60;99.90
33011;DHT22;19370;48.562;9.196;2022-08-25T07:32:13;21.70;99.90
33011;DHT22;19370;48.562;9.196;2022-08-25T07:34:59;21.70;99.90
33011;DHT22;19370;48.562;9.196;2022-08-25T07:38:00;21.90;99.90
33011;DHT22;19370;48.562;9.196;2022-08-25T07:40:46;21.90;99.90
33011;DHT22;19370;48.562;9.196;2022-08-25T07:43:39;22.00;99.90
33011;DHT22;19370;48.562;9.196;2022-08-25T07:46:26;22.10;99.90
33011;DHT22;19370;48.562;9.196;2022-08-25T07:49:12;22.10;99.90
33011;DHT22;19370;48.562;9.196;2022-08-25T07:51:58;22.10;99.90
33011;DHT22;19370;48.562;9.196;2022-08-25T07:54:44;22.20;99.90
33011;DHT22;19370;48.562;9.196;2022-08-25T07:57:31;22.40;99.90
33011;DHT22;19370;48.562;9.196;2022-08-25T08:00:17;22.50;99.90
33011;DHT22;19370;48.562;9.196;2022-08-25T08:03:05;22.50;99.90
33011;DHT22;19370;48.562;9.196;2022-08-25T08:05:52;22.60;99.90
33011;DHT22;19370;48.562;9.196;2022-08-25T08:08:42;22.70;99.90
33011;DHT22;19370;48.562;9.196;2022-08-25T08:11:32;22.80;99.90
33011;DHT22;19370;48.562;9.196;2022-08-25T08:14:19;23.00;99.90
33011;DHT22;19370;48.562;9.196;2022-08-25T08:17:07;23.10;99.90
33011;DHT22;19370;48.562;9.196;2022-08-25T08:19:53;23.20;99.90
33011;DHT22;19370;48.562;9.196;2022-08-25T08:22:41;23.30;99.90
33011;DHT22;19370;48.562;9.196;2022-08-25T08:25:27;23.40;99.90
33011;DHT22;19370;48.562;9.196;2022-08-25T08:28:13;23.40;99.90
33011;DHT22;19370;48.562;9.196;2022-08-25T08:30:59;23.60;99.90
33011;DHT22;19370;48.562;9.196;2022-08-25T08:33:47;23.70;99.90
33011;DHT22;19370;48.562;9.196;2022-08-25T08:36:34;23.80;99.90
33011;DHT22;19370;48.562;9.196;2022-08-25T08:39:20;23.90;99.90
33011;DHT22;19370;48.562;9.196;2022-08-25T08:42:54;24.00;99.90
33011;DHT22;19370;48.562;9.196;2022-08-25T08:51:24;24.50;99.90
33011;DHT22;19370;48.562;9.196;2022-08-25T08:54:18;24.60;99.90
33011;DHT22;19370;48.562;9.196;2022-08-25T08:57:18;24.80;99.90
33011;DHT22;19370;48.562;9.196;2022-08-25T09:00:08;24.90;99.90
33011;DHT22;19370;48.562;9.196;2022-08-25T09:03:02;24.80;99.90
33011;DHT22;19370;48.562;9.196;2022-08-25T09:05:52;25.00;99.90
33011;DHT22;19370;48.562;9.196;2022-08-25T09:08:40;25.10;99.90
33011;DHT22;19370;48.562;9.196;2022-08-25T09:23:25;25.70;99.90
33011;DHT22;19370;48.562;9.196;2022-08-25T09:29:17;26.20;99.90
33011;DHT22;19370;48.562;9.196;2022-08-25T09:32:05;26.40;99.90
33011;DHT22;19370;48.562;9.196;2022-08-25T09:34:53;26.50;99.90
33011;DHT22;19370;48.562;9.196;2022-08-25T09:37:39;26.70;99.90
33011;DHT22;19370;48.562;9.196;2022-08-25T09:40:28;27.00;99.10
33011;DHT22;19370;48.562;9.196;2022-08-25T09:43:28;27.00;99.30
33011;DHT22;19370;48.562;9.196;2022-08-25T09:46:23;27.10;98.30
33011;DHT22;19370;48.562;9.196;2022-08-25T09:49:13;27.30;97.60
33011;DHT22;19370;48.562;9.196;2022-08-25T09:52:36;27.70;96.20
33011;DHT22;19370;48.562;9.196;2022-08-25T09:55:29;27.90;97.10
33011;DHT22;19370;48.562;9.196;2022-08-25T09:58:21;27.90;96.70
33011;DHT22;19370;48.562;9.196;2022-08-25T10:01:18;27.90;95.80
33011;DHT22;19370;48.562;9.196;2022-08-25T10:04:05;27.90;95.90
33011;DHT22;19370;48.562;9.196;2022-08-25T10:06:51;28.00;93.80
33011;DHT22;19370;48.562;9.196;2022-08-25T10:09:41;28.20;94.30
33011;DHT22;19370;48.562;9.196;2022-08-25T10:12:40;28.40;94.30
33011;DHT22;19370;48.562;9.196;2022-08-25T10:15:35;28.50;92.80
33011;DHT22;19370;48.562;9.196;2022-08-25T10:18:27;28.90;91.70
33011;DHT22;19370;48.562;9.196;2022-08-25T10:21:45;29.10;90.30
33011;DHT22;19370;48.562;9.196;2022-08-25T10:24:46;29.20;89.80
33011;DHT22;19370;48.562;9.196;2022-08-25T10:34:47;29.40;87.70
33011;DHT22;19370;48.562;9.196;2022-08-25T10:41:19;29.90;81.90
33011;DHT22;19370;48.562;9.196;2022-08-25T10:44:18;30.20;82.00
33011;DHT22;19370;48.562;9.196;2022-08-25T10:54:48;30.70;78.40
33011;DHT22;19370;48.562;9.196;2022-08-25T11:08:01;31.50;69.40
33011;DHT22;19370;48.562;9.196;2022-08-25T11:14:18;31.70;70.40
33011;DHT22;19370;48.562;9.196;2022-08-25T11:17:47;31.90;69.40
33011;DHT22;19370;48.562;9.196;2022-08-25T11:20:41;31.70;68.20
33011;DHT22;19370;48.562;9.196;2022-08-25T11:23:43;31.60;67.00
33011;DHT22;19370;48.562;9.196;2022-08-25T11:26:32;32.30;68.50
33011;DHT22;19370;48.562;9.196;2022-08-25T11:29:21;32.30;69.30
33011;DHT22;19370;48.562;9.196;2022-08-25T11:32:08;32.40;67.70
33011;DHT22;19370;48.562;9.196;2022-08-25T11:34:59;32.20;68.20
33011;DHT22;19370;48.562;9.196;2022-08-25T11:37:56;32.20;67.70
33011;DHT22;19370;48.562;9.196;2022-08-25T11:46:39;31.70;68.30
33011;DHT22;19370;48.562;9.196;2022-08-25T11:58:32;31.80;66.10
33011;DHT22;19370;48.562;9.196;2022-08-25T12:07:23;33.60;61.10
33011;DHT22;19370;48.562;9.196;2022-08-25T12:10:11;34.10;59.60
33011;DHT22;19370;48.562;9.196;2022-08-25T12:13:00;34.50;58.30
33011;DHT22;19370;48.562;9.196;2022-08-25T12:18:37;34.30;57.80
33011;DHT22;19370;48.562;9.196;2022-08-25T12:21:30;34.40;58.20
33011;DHT22;19370;48.562;9.196;2022-08-25T12:24:24;34.50;54.80
33011;DHT22;19370;48.562;9.196;2022-08-25T12:30:55;33.70;57.20
33011;DHT22;19370;48.562;9.196;2022-08-25T12:37:19;33.70;58.50
33011;DHT22;19370;48.562;9.196;2022-08-25T12:40:33;33.70;57.30
33011;DHT22;19370;48.562;9.196;2022-08-25T12:43:43;32.80;58.10
33011;DHT22;19370;48.562;9.196;2022-08-25T12:49:34;31.00;62.00
33011;DHT22;19370;48.562;9.196;2022-08-25T12:52:23;31.40;64.30
33011;DHT22;19370;48.562;9.196;2022-08-25T12:55:11;31.50;60.00
33011;DHT22;19370;48.562;9.196;2022-08-25T12:57:58;31.90;61.90
33011;DHT22;19370;48.562;9.196;2022-08-25T13:18:25;32.50;59.60
33011;DHT22;19370;48.562;9.196;2022-08-25T13:21:19;33.00;58.80
33011;DHT22;19370;48.562;9.196;2022-08-25T13:24:18;33.20;57.00
33011;DHT22;19370;48.562;9.196;2022-08-25T13:27:08;32.80;57.30
33011;DHT22;19370;48.562;9.196;2022-08-25T13:29:57;32.30;57.20
33011;DHT22;19370;48.562;9.196;2022-08-25T13:32:44;32.00;58.90
33011;DHT22;19370;48.562;9.196;2022-08-25T13:35:30;31.50;59.20
33011;DHT22;19370;48.562;9.196;2022-08-25T13:38:18;31.20;60.10
33011;DHT22;19370;48.562;9.196;2022-08-25T13:41:06;31.30;60.70
33011;DHT22;19370;48.562;9.196;2022-08-25T13:43:53;31.80;59.50
33011;DHT22;19370;48.562;9.196;2022-08-25T13:46:40;32.50;59.30
33011;DHT22;19370;48.562;9.196;2022-08-25T13:49:27;33.00;58.00
33011;DHT22;19370;48.562;9.196;2022-08-25T13:52:27;33.10;57.00
33011;DHT22;19370;48.562;9.196;2022-08-25T13:55:22;33.10;56.90
33011;DHT22;19370;48.562;9.196;2022-08-25T13:58:14;33.50;55.40
33011;DHT22;19370;48.562;9.196;2022-08-25T14:01:25;33.50;54.70
33011;DHT22;19370;48.562;9.196;2022-08-25T14:10:29;34.90;52.20
33011;DHT22;19370;48.562;9.196;2022-08-25T14:16:19;35.80;49.80
33011;DHT22;19370;48.562;9.196;2022-08-25T14:19:13;35.80;49.20
33011;DHT22;19370;48.562;9.196;2022-08-25T14:22:00;35.90;48.00
33011;DHT22;19370;48.562;9.196;2022-08-25T14:24:47;36.20;48.60
33011;DHT22;19370;48.562;9.196;2022-08-25T14:27:32;36.40;47.80
33011;DHT22;19370;48.562;9.196;2022-08-25T14:30:20;36.60;47.40
33011;DHT22;19370;48.562;9.196;2022-08-25T14:33:07;36.30;48.00
33011;DHT22;19370;48.562;9.196;2022-08-25T14:35:54;36.10;47.70
33011;DHT22;19370;48.562;9.196;2022-08-25T14:38:42;36.20;47.80
33011;DHT22;19370;48.562;9.196;2022-08-25T14:41:28;36.10;47.60
33011;DHT22;19370;48.562;9.196;2022-08-25T14:44:14;35.80;48.60
33011;DHT22;19370;48.562;9.196;2022-08-25T14:47:01;36.00;47.30
33011;DHT22;19370;48.562;9.196;2022-08-25T14:49:48;36.50;46.50
33011;DHT22;19370;48.562;9.196;2022-08-25T14:52:34;36.70;46.90
33011;DHT22;19370;48.562;9.196;2022-08-25T14:55:20;37.00;44.70
33011;DHT22;19370;48.562;9.196;2022-08-25T14:58:06;37.30;44.00
33011;DHT22;19370;48.562;9.196;2022-08-25T15:00:53;37.40;43.40
33011;DHT22;19370;48.562;9.196;2022-08-25T15:03:42;37.50;44.00
33011;DHT22;19370;48.562;9.196;2022-08-25T15:06:28;37.20;44.80
33011;DHT22;19370;48.562;9.196;2022-08-25T15:09:15;37.40;44.30
33011;DHT22;19370;48.562;9.196;2022-08-25T15:12:02;37.90;43.30
33011;DHT22;19370;48.562;9.196;2022-08-25T15:14:48;38.40;42.60
33011;DHT22;19370;48.562;9.196;2022-08-25T15:17:34;38.50;42.30
33011;DHT22;19370;48.562;9.196;2022-08-25T15:20:20;38.20;40.20
33011;DHT22;19370;48.562;9.196;2022-08-25T15:23:06;38.50;41.40
33011;DHT22;19370;48.562;9.196;2022-08-25T15:25:56;38.40;43.10
33011;DHT22;19370;48.562;9.196;2022-08-25T15:28:46;38.10;42.70
33011;DHT22;19370;48.562;9.196;2022-08-25T15:31:33;38.10;43.90
33011;DHT22;19370;48.562;9.196;2022-08-25T15:34:21;38.20;43.00
33011;DHT22;19370;48.562;9.196;2022-08-25T15:37:13;38.40;42.20
33011;DHT22;19370;48.562;9.196;2022-08-25T15:39:59;38.20;42.00
33011;DHT22;19370;48.562;9.196;2022-08-25T15:42:46;38.70;42.30
33011;DHT22;19370;48.562;9.196;2022-08-25T15:45:32;38.60;41.70
33011;DHT22;19370;48.562;9.196;2022-08-25T15:48:20;38.80;41.00
33011;DHT22;19370;48.562;9.196;2022-08-25T15:51:07;38.80;40.80
33011;DHT22;19370;48.562;9.196;2022-08-25T15:53:53;39.10;40.30
33011;DHT22;19370;48.562;9.196;2022-08-25T15:56:40;39.10;40.20
33011;DHT22;19370;48.562;9.196;2022-08-25T15:59:27;39.60;39.30
33011;DHT22;19370;48.562;9.196;2022-08-25T16:02:13;39.70;38.60
33011;DHT22;19370;48.562;9.196;2022-08-25T16:05:00;40.00;38.50
33011;DHT22;19370;48.562;9.196;2022-08-25T16:07:46;40.00;39.10
33011;DHT22;19370;48.562;9.196;2022-08-25T16:10:35;39.70;39.70
33011;DHT22;19370;48.562;9.196;2022-08-25T16:13:22;39.30;39.90
33011;DHT22;19370;48.562;9.196;2022-08-25T16:16:08;39.30;40.40
33011;DHT22;19370;48.562;9.196;2022-08-25T16:18:55;39.30;40.20
33011;DHT22;19370;48.562;9.196;2022-08-25T16:21:41;39.40;39.40
33011;DHT22;19370;48.562;9.196;2022-08-25T16:24:27;39.50;39.00
33011;DHT22;19370;48.562;9.196;2022-08-25T16:27:13;39.30;39.20
33011;DHT22;19370;48.562;9.196;2022-08-25T16:29:59;39.60;38.90
33011;DHT22;19370;48.562;9.196;2022-08-25T16:32:47;39.50;39.30
33011;DHT22;19370;48.562;9.196;2022-08-25T16:35:33;39.40;39.20
33011;DHT22;19370;48.562;9.196;2022-08-25T16:38:19;39.20;39.70
33011;DHT22;19370;48.562;9.196;2022-08-25T16:41:15;39.30;40.20
33011;DHT22;19370;48.562;9.196;2022-08-25T16:44:02;39.20;39.80
33011;DHT22;19370;48.562;9.196;2022-08-25T16:46:52;39.00;40.20
33011;DHT22;19370;48.562;9.196;2022-08-25T16:49:42;38.70;40.40
33011;DHT22;19370;48.562;9.196;2022-08-25T16:52:28;37.70;41.20
33011;DHT22;19370;48.562;9.196;2022-08-25T16:55:32;37.60;42.00
33011;DHT22;19370;48.562;9.196;2022-08-25T16:58:18;37.80;41.90
33011;DHT22;19370;48.562;9.196;2022-08-25T17:01:06;37.90;41.90
33011;DHT22;19370;48.562;9.196;2022-08-25T17:03:53;38.10;42.10
33011;DHT22;19370;48.562;9.196;2022-08-25T17:06:42;38.00;42.00
33011;DHT22;19370;48.562;9.196;2022-08-25T17:09:28;38.00;41.60
33011;DHT22;19370;48.562;9.196;2022-08-25T17:12:15;38.00;42.10
33011;DHT22;19370;48.562;9.196;2022-08-25T17:15:01;37.60;42.10
33011;DHT22;19370;48.562;9.196;2022-08-25T17:17:47;37.40;42.60
33011;DHT22;19370;48.562;9.196;2022-08-25T17:20:33;36.30;43.50
33011;DHT22;19370;48.562;9.196;2022-08-25T17:23:19;34.60;45.40
33011;DHT22;19370;48.562;9.196;2022-08-25T17:26:05;33.00;48.00
33011;DHT22;19370;48.562;9.196;2022-08-25T17:28:52;31.70;49.60
33011;DHT22;19370;48.562;9.196;2022-08-25T17:31:38;30.80;52.00
33011;DHT22;19370;48.562;9.196;2022-08-25T17:34:24;30.10;53.20
33011;DHT22;19370;48.562;9.196;2022-08-25T17:37:11;29.50;54.90
33011;DHT22;19370;48.562;9.196;2022-08-25T17:39:57;29.10;55.80
33011;DHT22;19370;48.562;9.196;2022-08-25T17:42:43;28.70;56.80
33011;DHT22;19370;48.562;9.196;2022-08-25T17:45:29;28.30;57.80
33011;DHT22;19370;48.562;9.196;2022-08-25T17:48:16;28.10;58.20
33011;DHT22;19370;48.562;9.196;2022-08-25T17:51:04;27.90;59.20
33011;DHT22;19370;48.562;9.196;2022-08-25T17:53:51;27.70;60.50
33011;DHT22;19370;48.562;9.196;2022-08-25T17:56:37;27.50;60.20
33011;DHT22;19370;48.562;9.196;2022-08-25T17:59:23;27.30;60.80
33011;DHT22;19370;48.562;9.196;2022-08-25T18:02:09;27.20;61.50
33011;DHT22;19370;48.562;9.196;2022-08-25T18:04:55;27.00;61.90
33011;DHT22;19370;48.562;9.196;2022-08-25T18:07:42;26.90;62.80
33011;DHT22;19370;48.562;9.196;2022-08-25T18:10:29;26.80;63.10
33011;DHT22;19370;48.562;9.196;2022-08-25T18:13:16;26.70;63.70
33011;DHT22;19370;48.562;9.196;2022-08-25T18:16:03;26.60;64.30
33011;DHT22;19370;48.562;9.196;2022-08-25T18:18:49;26.50;64.40
33011;DHT22;19370;48.562;9.196;2022-08-25T18:21:35;26.40;65.90
33011;DHT22;19370;48.562;9.196;2022-08-25T18:24:21;26.20;65.70
33011;DHT22;19370;48.562;9.196;2022-08-25T18:27:07;26.10;66.50
33011;DHT22;19370;48.562;9.196;2022-08-25T18:29:54;26.00;67.10
33011;DHT22;19370;48.562;9.196;2022-08-25T18:32:40;25.90;67.40
33011;DHT22;19370;48.562;9.196;2022-08-25T18:35:27;25.80;67.10
33011;DHT22;19370;48.562;9.196;2022-08-25T18:38:13;25.70;67.70
33011;DHT22;19370;48.562;9.196;2022-08-25T18:41:18;25.60;67.70
33011;DHT22;19370;48.562;9.196;2022-08-25T18:44:04;25.60;68.20
33011;DHT22;19370;48.562;9.196;2022-08-25T18:46:51;25.50;67.90
33011;DHT22;19370;48.562;9.196;2022-08-25T18:49:37;25.50;68.40
33011;DHT22;19370;48.562;9.196;2022-08-25T18:52:23;25.40;69.00
33011;DHT22;19370;48.562;9.196;2022-08-25T18:55:09;25.30;69.10
33011;DHT22;19370;48.562;9.196;2022-08-25T18:57:57;25.20;70.30
33011;DHT22;19370;48.562;9.196;2022-08-25T19:00:43;25.10;71.40
33011;DHT22;19370;48.562;9.196;2022-08-25T19:03:30;25.00;71.80
33011;DHT22;19370;48.562;9.196;2022-08-25T19:06:17;24.90;73.30
33011;DHT22;19370;48.562;9.196;2022-08-25T19:09:06;24.80;74.00
33011;DHT22;19370;48.562;9.196;2022-08-25T19:11:52;24.70;74.70
33011;DHT22;19370;48.562;9.196;2022-08-25T19:14:38;24.70;75.30
33011;DHT22;19370;48.562;9.196;2022-08-25T19:17:25;24.60;75.70
33011;DHT22;19370;48.562;9.196;2022-08-25T19:20:11;24.50;75.00
33011;DHT22;19370;48.562;9.196;2022-08-25T19:22:57;24.40;74.60
33011;DHT22;19370;48.562;9.196;2022-08-25T19:25:43;24.40;76.00
33011;DHT22;19370;48.562;9.196;2022-08-25T19:28:30;24.30;75.90
33011;DHT22;19370;48.562;9.196;2022-08-25T19:31:21;24.20;76.50
33011;DHT22;19370;48.562;9.196;2022-08-25T19:34:10;24.10;77.30
33011;DHT22;19370;48.562;9.196;2022-08-25T19:36:59;24.10;77.50
33011;DHT22;19370;48.562;9.196;2022-08-25T19:39:46;24.10;78.80